Terminal Aerodrome Forecast
Issued by NWS

Home | Current Version | Previous Version | Text Only | Print | Product List | Glossary On
Versions: 1 2 3 4 5 6 7 8 9 10 11 12 13 14 15 16 17 18
000
FTUS41 KBTV 241720
TAFPBG
TAF
KPBG 241720Z 2418/2518 30009G16KT P6SM FEW060
     FM250000 26005KT P6SM SCT060
     FM250700 VRB03KT 3SM BR SCT003
     FM251100 22005KT P6SM SCT080=

USA.gov is the U.S. government's official web portal to all federal, state and local government web resources and services.